createdAt,value
2019-04-04T00:00:51.690Z,3.65
2019-04-04T00:03:21.070Z,3.83
2019-04-04T00:05:50.350Z,3.70
2019-04-04T00:08:19.011Z,4.55
2019-04-04T00:10:47.699Z,4.00
2019-04-04T00:13:16.209Z,3.70
2019-04-04T00:15:45.612Z,3.58
2019-04-04T00:18:14.628Z,4.65
2019-04-04T00:20:43.250Z,4.05
2019-04-04T00:23:11.920Z,4.12
2019-04-04T00:25:40.920Z,4.12
2019-04-04T00:28:09.519Z,4.80
2019-04-04T00:30:38.030Z,4.70
2019-04-04T00:33:06.716Z,4.30
2019-04-04T00:35:35.385Z,4.25
2019-04-04T00:38:06.727Z,4.42
2019-04-04T00:40:34.727Z,4.40
2019-04-04T00:43:03.351Z,5.20
2019-04-04T00:45:31.939Z,4.67
2019-04-04T00:48:01.076Z,4.83
2019-04-04T00:50:30.787Z,5.20
2019-04-04T00:52:59.445Z,4.85
2019-04-04T00:55:28.058Z,5.03
2019-04-04T00:57:56.593Z,4.50
2019-04-04T01:00:25.266Z,4.62
2019-04-04T01:02:53.955Z,4.92
2019-04-04T01:05:22.505Z,5.00
2019-04-04T01:07:51.091Z,3.98
2019-04-04T01:10:19.862Z,4.00
2019-04-04T01:12:50.190Z,4.40
2019-04-04T01:15:18.763Z,4.60
2019-04-04T01:17:47.371Z,5.10
2019-04-04T01:20:18.092Z,5.28
2019-04-04T01:22:47.089Z,3.90
2019-04-04T01:25:15.752Z,5.47
2019-04-04T01:27:44.439Z,4.97
2019-04-04T01:30:13.098Z,4.45
2019-04-04T01:32:41.618Z,5.05
2019-04-04T01:35:10.226Z,4.55
2019-04-04T01:37:38.818Z,4.87
2019-04-04T01:40:07.901Z,5.10
2019-04-04T01:42:38.741Z,4.92
2019-04-04T01:45:08.435Z,5.83
2019-04-04T01:47:36.956Z,5.75
2019-04-04T01:50:06.230Z,6.30
2019-04-04T01:52:34.755Z,6.03
2019-04-04T01:55:04.162Z,5.97
2019-04-04T01:57:32.788Z,6.15
2019-04-04T02:00:01.327Z,6.67
2019-04-04T02:02:29.855Z,6.60
2019-04-04T02:04:58.336Z,7.45
2019-04-04T02:07:27.858Z,6.40
2019-04-04T02:09:56.954Z,6.78
2019-04-04T02:12:25.503Z,7.17
2019-04-04T02:14:54.023Z,7.08
2019-04-04T02:17:22.795Z,6.87
2019-04-04T02:19:51.290Z,6.90
2019-04-04T02:22:19.904Z,6.90
2019-04-04T02:24:48.440Z,8.43
2019-04-04T02:27:16.996Z,6.95
2019-04-04T02:29:45.532Z,6.70
2019-04-04T02:32:15.748Z,7.92
2019-04-04T02:34:44.289Z,7.10
2019-04-04T02:37:12.816Z,8.48
2019-04-04T02:39:41.364Z,7.17
2019-04-04T02:42:09.889Z,7.12
2019-04-04T02:44:38.679Z,8.50
2019-04-04T02:47:07.220Z,8.55
2019-04-04T02:49:35.774Z,7.65
2019-04-04T02:52:04.354Z,7.80
2019-04-04T02:54:32.940Z,7.40
2019-04-04T02:57:01.479Z,7.03
2019-04-04T02:59:30.015Z,8.10
2019-04-04T03:01:58.809Z,8.58
2019-04-04T03:04:27.500Z,7.67
2019-04-04T03:06:58.507Z,9.30
2019-04-04T03:09:26.366Z,7.30
2019-04-04T03:11:55.037Z,8.38
2019-04-04T03:14:23.580Z,7.58
2019-04-04T03:16:56.378Z,9.00
2019-04-04T03:19:22.758Z,9.38
2019-04-04T03:21:54.916Z,7.83
2019-04-04T03:24:21.464Z,9.10
2019-04-04T03:26:52.508Z,8.80
2019-04-04T03:29:20.186Z,8.58
2019-04-04T03:31:48.860Z,8.15
2019-04-04T03:34:17.479Z,7.92
2019-04-04T03:36:46.063Z,9.10
2019-04-04T03:39:19.124Z,8.28
2019-04-04T03:41:44.792Z,8.05
2019-04-04T03:44:13.319Z,8.05
2019-04-04T03:46:41.870Z,7.08
2019-04-04T03:49:10.395Z,7.97
2019-04-04T03:51:38.916Z,6.30
2019-04-04T03:54:12.090Z,7.72
2019-04-04T03:56:40.619Z,7.58
2019-04-04T03:59:09.197Z,6.17
2019-04-04T04:01:37.819Z,8.08
2019-04-04T04:04:06.372Z,8.15
2019-04-04T04:06:34.903Z,8.15
2019-04-04T04:09:05.638Z,7.67
2019-04-04T04:11:34.668Z,8.85
2019-04-04T04:14:04.736Z,9.18
2019-04-04T04:16:35.890Z,8.80
2019-04-04T04:19:03.724Z,8.70
2019-04-04T04:21:32.272Z,7.83
2019-04-04T04:24:00.796Z,8.05
2019-04-04T04:26:29.318Z,7.53
2019-04-04T04:28:57.868Z,8.48
2019-04-04T04:31:26.396Z,8.00
2019-04-04T04:33:54.940Z,9.20
2019-04-04T04:36:23.467Z,8.63
2019-04-04T04:38:52.015Z,8.85
2019-04-04T04:41:21.379Z,9.35
2019-04-04T04:43:49.983Z,9.43
2019-04-04T04:46:18.531Z,9.48
2019-04-04T04:48:47.067Z,9.08
2019-04-04T04:51:15.625Z,10.10
2019-04-04T04:53:44.157Z,9.63
2019-04-04T04:56:12.704Z,8.53
2019-04-04T04:58:42.138Z,10.65
2019-04-04T05:01:11.291Z,11.10
2019-04-04T05:03:39.833Z,11.43
2019-04-04T05:06:08.386Z,10.98
2019-04-04T05:08:36.915Z,12.43
2019-04-04T05:11:05.539Z,10.85
2019-04-04T05:13:34.012Z,12.03
2019-04-04T05:16:05.205Z,10.75
2019-04-04T05:18:32.736Z,12.35
2019-04-04T05:21:01.943Z,14.13
2019-04-04T05:23:31.029Z,11.60
2019-04-04T05:26:02.141Z,12.70
2019-04-04T05:28:29.820Z,12.60
2019-04-04T05:30:58.353Z,12.18
2019-04-04T05:33:27.399Z,13.40
2019-04-04T05:35:56.634Z,11.93
2019-04-04T05:38:25.187Z,13.58
2019-04-04T05:40:55.324Z,13.18
2019-04-04T05:43:23.915Z,13.58
2019-04-04T05:45:52.518Z,13.72
2019-04-04T05:48:21.127Z,15.05
2019-04-04T05:50:49.660Z,15.48
2019-04-04T05:53:21.198Z,13.15
2019-04-04T05:55:48.400Z,16.02
2019-04-04T05:58:16.931Z,14.55
2019-04-04T06:00:46.751Z,14.80
2019-04-04T06:03:15.951Z,14.83
2019-04-04T06:05:44.648Z,15.72
2019-04-04T06:08:13.166Z,15.88
2019-04-04T06:10:41.717Z,16.07
2019-04-04T06:13:10.242Z,16.57
2019-04-04T06:15:38.796Z,15.72
2019-04-04T06:18:10.788Z,16.00
2019-04-04T06:20:37.600Z,16.55
2019-04-04T06:23:06.127Z,17.05
2019-04-04T06:25:35.836Z,14.85
2019-04-04T06:28:04.541Z,17.17
2019-04-04T06:30:42.581Z,15.88
2019-04-04T06:33:04.855Z,17.07
2019-04-04T06:35:34.177Z,14.40
2019-04-04T06:38:02.780Z,17.90
2019-04-04T06:40:31.327Z,15.90
2019-04-04T06:42:59.869Z,15.43
2019-04-04T06:45:29.810Z,14.63
2019-04-04T06:47:58.424Z,23.52
2019-04-04T06:50:26.974Z,16.65
2019-04-04T06:52:56.717Z,13.62
2019-04-04T06:55:28.321Z,16.12
2019-04-04T06:57:55.619Z,15.18
2019-04-04T07:00:24.171Z,15.45
2019-04-04T07:02:55.026Z,15.18
2019-04-04T07:05:22.908Z,16.05
2019-04-04T07:07:51.441Z,15.28
2019-04-04T07:10:21.831Z,15.40
2019-04-04T07:12:50.258Z,15.75
2019-04-04T07:15:18.920Z,14.05
2019-04-04T07:17:47.478Z,15.20
2019-04-04T07:20:17.012Z,14.98
2019-04-04T07:22:46.148Z,14.07
2019-04-04T07:25:14.819Z,13.53
2019-04-04T07:27:45.187Z,15.23
2019-04-04T07:30:15.450Z,15.32
2019-04-04T07:32:43.898Z,15.08
2019-04-04T07:35:12.575Z,15.25
2019-04-04T07:37:41.212Z,15.45
2019-04-04T07:40:09.914Z,15.38
2019-04-04T07:42:40.151Z,14.40
2019-04-04T07:45:09.155Z,15.55
2019-04-04T07:47:37.711Z,15.25
2019-04-04T07:50:06.989Z,15.08
2019-04-04T07:52:35.547Z,14.95
2019-04-04T07:55:04.711Z,15.23
2019-04-04T07:57:33.286Z,14.95
2019-04-04T08:00:01.814Z,15.20
2019-04-04T08:02:30.367Z,14.93
2019-04-04T08:04:58.904Z,14.53
2019-04-04T08:07:27.459Z,13.95
2019-04-04T08:09:56.138Z,13.55
2019-04-04T08:12:24.763Z,14.68
2019-04-04T08:14:53.300Z,15.25
2019-04-04T08:17:21.857Z,15.57
2019-04-04T08:19:59.668Z,14.17
2019-04-04T08:22:20.835Z,15.90
2019-04-04T08:24:49.475Z,14.10
2019-04-04T08:27:18.028Z,13.00
2019-04-04T08:29:46.575Z,14.80
2019-04-04T08:32:15.197Z,14.77
2019-04-04T08:34:43.796Z,14.60
2019-04-04T08:37:12.434Z,14.23
2019-04-04T08:39:40.947Z,15.37
2019-04-04T08:42:09.430Z,14.93
2019-04-04T08:44:38.100Z,15.37
2019-04-04T08:47:06.662Z,14.27
2019-04-04T08:49:35.194Z,14.27
2019-04-04T08:52:15.895Z,13.00
2019-04-04T08:54:34.168Z,14.57
2019-04-04T08:57:02.727Z,16.87
2019-04-04T08:59:31.255Z,15.20
2019-04-04T09:01:59.811Z,13.80
2019-04-04T09:04:28.340Z,14.70
2019-04-04T09:06:56.891Z,13.90
2019-04-04T09:09:25.458Z,14.20
2019-04-04T09:11:53.973Z,12.90
2019-04-04T09:14:22.502Z,13.40
2019-04-04T09:16:50.990Z,12.87
2019-04-04T09:19:19.527Z,13.63
2019-04-04T09:21:48.075Z,13.20
2019-04-04T09:24:16.607Z,13.23
2019-04-04T09:26:45.169Z,12.77
2019-04-04T09:29:13.707Z,12.93
2019-04-04T09:31:42.241Z,13.90
2019-04-04T09:34:10.867Z,13.30
2019-04-04T09:36:39.471Z,12.40
2019-04-04T09:39:08.036Z,12.73
2019-04-04T09:41:36.575Z,13.55
2019-04-04T09:44:06.185Z,13.20
2019-04-04T09:46:34.820Z,12.50
2019-04-04T09:49:03.519Z,12.75
2019-04-04T09:51:32.140Z,14.33
2019-04-04T09:54:00.769Z,12.43
2019-04-04T09:56:30.022Z,12.87
2019-04-04T09:58:58.594Z,12.68
2019-04-04T10:01:27.201Z,12.95
2019-04-04T10:03:55.766Z,11.93
2019-04-04T10:06:24.292Z,12.50
2019-04-04T10:08:52.844Z,13.50
2019-04-04T10:11:21.443Z,10.87
2019-04-04T10:13:49.995Z,11.50
2019-04-04T10:16:18.548Z,12.23
2019-04-04T10:18:47.095Z,11.60
2019-04-04T10:21:15.627Z,10.07
2019-04-04T10:23:44.160Z,12.90
2019-04-04T10:26:12.718Z,11.20
2019-04-04T10:28:41.193Z,12.43
2019-04-04T10:31:09.738Z,12.10
2019-04-04T10:33:38.262Z,11.47
2019-04-04T10:36:06.895Z,10.53
2019-04-04T10:38:35.426Z,11.10
2019-04-04T10:41:04.041Z,11.20
2019-04-04T10:43:32.577Z,11.20
2019-04-04T10:46:01.114Z,11.87
2019-04-04T10:48:29.665Z,10.77
2019-04-04T10:50:58.266Z,11.87
2019-04-04T10:53:26.816Z,11.30
2019-04-04T10:55:55.338Z,13.80
2019-04-04T10:58:23.900Z,10.13
2019-04-04T11:00:52.427Z,12.77
2019-04-04T11:03:20.910Z,10.83
2019-04-04T11:05:49.524Z,12.27
2019-04-04T11:08:18.085Z,10.93
2019-04-04T11:10:46.614Z,11.17
2019-04-04T11:13:15.095Z,11.13
2019-04-04T11:15:43.634Z,12.47
2019-04-04T11:18:12.187Z,11.57
2019-04-04T11:20:40.727Z,11.93
2019-04-04T11:23:09.266Z,11.87
2019-04-04T11:25:37.818Z,10.20
2019-04-04T11:28:06.288Z,10.93
2019-04-04T11:30:34.843Z,9.77
2019-04-04T11:33:03.383Z,11.70
2019-04-04T11:35:32.006Z,11.00
2019-04-04T11:38:00.466Z,10.67
2019-04-04T11:40:29.104Z,11.17
2019-04-04T11:42:57.639Z,10.30
2019-04-04T11:45:26.259Z,10.90
2019-04-04T11:47:54.804Z,9.73
2019-04-04T11:50:23.327Z,10.87
2019-04-04T11:52:51.804Z,11.00
2019-04-04T11:55:20.327Z,9.80
2019-04-04T11:57:48.883Z,12.10
2019-04-04T12:00:22.079Z,10.77
2019-04-04T12:02:50.631Z,10.63
2019-04-04T12:05:19.082Z,9.37
2019-04-04T12:07:47.648Z,11.17
2019-04-04T12:10:16.318Z,10.73
2019-04-04T12:12:44.869Z,10.60
2019-04-04T12:15:13.851Z,9.80
2019-04-04T12:17:42.402Z,10.60
2019-04-04T12:20:11.276Z,9.30
2019-04-04T12:22:39.820Z,10.93
2019-04-04T12:25:08.716Z,10.60
2019-04-04T12:27:37.248Z,9.90
2019-04-04T12:30:09.760Z,8.97
2019-04-04T12:32:38.289Z,7.87
2019-04-04T12:35:07.282Z,9.40
2019-04-04T12:37:35.809Z,8.93
2019-04-04T12:40:19.444Z,8.60
2019-04-04T12:42:36.680Z,8.67
2019-04-04T12:45:08.271Z,8.63
2019-04-04T12:47:37.175Z,8.60
2019-04-04T12:50:06.565Z,8.07
2019-04-04T12:52:36.864Z,7.53
2019-04-04T12:55:06.752Z,6.60
2019-04-04T12:57:35.267Z,7.83
2019-04-04T13:00:05.059Z,7.13
2019-04-04T13:02:33.595Z,6.90
2019-04-04T13:05:02.214Z,7.27
2019-04-04T13:07:30.746Z,7.80
2019-04-04T13:10:10.971Z,7.93
2019-04-04T13:12:29.471Z,8.23
2019-04-04T13:14:58.023Z,7.77
2019-04-04T13:17:26.559Z,7.20
2019-04-04T13:19:55.109Z,6.80
2019-04-04T13:22:23.626Z,8.03
2019-04-04T13:24:52.117Z,15.47
2019-04-04T13:27:20.645Z,8.50
2019-04-04T13:29:49.170Z,7.80
2019-04-04T13:32:17.724Z,7.67
2019-04-04T13:34:58.375Z,8.60
2019-04-04T13:37:16.444Z,9.37
2019-04-04T13:39:44.975Z,6.63
2019-04-04T13:42:13.527Z,7.77
2019-04-04T13:44:44.761Z,8.27
2019-04-04T13:47:12.335Z,9.00
2019-04-04T13:49:42.203Z,8.77
2019-04-04T13:52:11.747Z,8.70
2019-04-04T13:54:40.340Z,9.00
2019-04-04T13:57:08.879Z,10.80
2019-04-04T13:59:37.442Z,10.47
2019-04-04T14:02:06.203Z,8.90
2019-04-04T14:04:34.827Z,8.67
2019-04-04T14:07:03.363Z,8.53
2019-04-04T14:09:31.987Z,8.63
2019-04-04T14:12:00.530Z,8.13
2019-04-04T14:14:29.161Z,8.67
2019-04-04T14:16:57.687Z,8.67
2019-04-04T14:19:26.288Z,8.50
2019-04-04T14:21:54.840Z,7.77
2019-04-04T14:24:23.372Z,7.30
2019-04-04T14:26:51.922Z,7.33
2019-04-04T14:29:27.398Z,6.57
2019-04-04T14:31:50.789Z,6.40
2019-04-04T14:34:19.311Z,6.30
2019-04-04T14:36:47.863Z,6.30
2019-04-04T14:39:16.310Z,6.47
2019-04-04T14:41:44.850Z,6.03
2019-04-04T14:44:15.601Z,6.13
2019-04-04T14:46:43.570Z,5.47
2019-04-04T14:49:12.372Z,4.60
2019-04-04T14:51:42.301Z,5.60
2019-04-04T14:54:10.830Z,5.03
2019-04-04T14:56:39.447Z,4.07
2019-04-04T14:59:07.967Z,4.60
2019-04-04T15:01:38.093Z,4.20
2019-04-04T15:04:06.571Z,3.53
2019-04-04T15:06:35.108Z,3.57
2019-04-04T15:09:05.507Z,3.30
2019-04-04T15:11:34.051Z,2.93
2019-04-04T15:14:02.495Z,2.30
2019-04-04T15:16:30.971Z,2.27
2019-04-04T15:18:59.491Z,2.40
2019-04-04T15:21:27.960Z,2.07
2019-04-04T15:23:56.497Z,2.20
2019-04-04T15:26:25.314Z,2.50
2019-04-04T15:28:53.841Z,4.87
2019-04-04T15:31:22.366Z,2.10
2019-04-04T15:33:50.932Z,5.23
2019-04-04T15:36:19.431Z,2.23
2019-04-04T15:38:48.038Z,1.90
2019-04-04T15:41:16.558Z,1.23
2019-04-04T15:43:45.040Z,0.90
2019-04-04T15:46:13.573Z,1.00
2019-04-04T15:48:42.108Z,1.00
2019-04-04T15:51:10.708Z,1.00
2019-04-04T15:53:39.251Z,0.90
2019-04-04T15:56:07.783Z,0.70
2019-04-04T15:58:36.255Z,1.03
2019-04-04T16:01:04.957Z,0.87
2019-04-04T16:03:33.540Z,0.60
2019-04-04T16:06:02.139Z,0.80
2019-04-04T16:08:30.664Z,0.57
2019-04-04T16:10:59.846Z,0.50
2019-04-04T16:13:28.433Z,0.50
2019-04-04T16:15:56.987Z,0.57
2019-04-04T16:18:25.585Z,0.57
2019-04-04T16:20:54.191Z,0.70
2019-04-04T16:23:22.719Z,0.40
2019-04-04T16:25:53.564Z,0.60
2019-04-04T16:28:22.089Z,0.60
2019-04-04T16:30:50.631Z,0.53
2019-04-04T16:33:19.154Z,0.50
2019-04-04T16:35:47.708Z,0.60
2019-04-04T16:38:16.228Z,0.60
2019-04-04T16:40:44.771Z,0.50
2019-04-04T16:43:13.219Z,0.60
2019-04-04T16:45:41.770Z,0.60
2019-04-04T16:48:10.296Z,0.50
2019-04-04T16:50:38.843Z,0.80
2019-04-04T16:53:07.382Z,0.57
2019-04-04T16:55:36.005Z,0.60
2019-04-04T16:58:04.679Z,0.50
2019-04-04T17:00:33.375Z,0.60
2019-04-04T17:03:01.987Z,0.40
2019-04-04T17:05:30.671Z,0.47
2019-04-04T17:07:59.208Z,0.40
2019-04-04T17:10:28.223Z,1.20
2019-04-04T17:12:57.075Z,0.40
2019-04-04T17:15:25.617Z,0.50
2019-04-04T17:17:54.166Z,0.60
2019-04-04T17:20:22.692Z,0.40
2019-04-04T17:22:51.241Z,0.50
2019-04-04T17:25:19.767Z,0.40
2019-04-04T17:27:48.328Z,0.45
2019-04-04T17:30:17.605Z,0.42
2019-04-04T17:32:48.644Z,0.57
2019-04-04T17:35:16.696Z,0.50
2019-04-04T17:37:45.897Z,0.40
2019-04-04T17:40:15.259Z,0.60
2019-04-04T17:42:44.033Z,0.60
2019-04-04T17:45:12.784Z,0.50
2019-04-04T17:47:41.327Z,0.80
2019-04-04T17:50:12.499Z,0.55
2019-04-04T17:52:41.377Z,0.40
2019-04-04T17:55:10.519Z,2.35
2019-04-04T17:57:38.999Z,0.50
2019-04-04T18:00:09.130Z,0.55
2019-04-04T18:02:37.739Z,0.50
2019-04-04T18:05:11.440Z,0.47
2019-04-04T18:07:39.988Z,0.40
2019-04-04T18:10:09.457Z,0.50
2019-04-04T18:12:40.655Z,0.40
2019-04-04T18:15:08.522Z,0.60
2019-04-04T18:17:37.211Z,0.45
2019-04-04T18:20:07.579Z,0.45
2019-04-04T18:22:36.377Z,0.60
2019-04-04T18:25:06.774Z,0.45
2019-04-04T18:27:35.434Z,0.40
2019-04-04T18:30:09.627Z,0.45
2019-04-04T18:32:38.080Z,0.50
2019-04-04T18:35:08.416Z,0.40
2019-04-04T18:37:37.129Z,0.60
2019-04-04T18:40:07.962Z,0.40
2019-04-04T18:42:36.627Z,0.50
2019-04-04T18:45:09.555Z,0.50
2019-04-04T18:47:38.071Z,0.50
2019-04-04T18:50:07.857Z,0.50
2019-04-04T18:52:36.389Z,0.60
2019-04-04T18:55:18.771Z,0.50
2019-04-04T18:57:36.739Z,0.50
2019-04-04T19:00:08.364Z,0.60
2019-04-04T19:02:37.023Z,0.70
2019-04-04T19:05:07.187Z,0.50
2019-04-04T19:07:39.516Z,0.50
2019-04-04T19:10:06.898Z,0.50
2019-04-04T19:12:35.514Z,0.50
2019-04-04T19:15:07.592Z,0.50
2019-04-04T19:17:35.484Z,0.50
2019-04-04T19:20:09.751Z,0.62
2019-04-04T19:22:37.024Z,0.60
2019-04-04T19:25:06.996Z,0.50
2019-04-04T19:27:35.754Z,0.70
2019-04-04T19:30:06.408Z,0.50
2019-04-04T19:32:35.020Z,0.50
2019-04-04T19:35:04.988Z,0.60
2019-04-04T19:37:33.532Z,0.50
2019-04-04T19:40:02.124Z,0.65
2019-04-04T19:42:30.733Z,0.50
2019-04-04T19:44:59.264Z,0.50
2019-04-04T19:47:27.875Z,0.60
2019-04-04T19:49:56.666Z,0.50
2019-04-04T19:52:25.124Z,0.50
2019-04-04T19:54:53.659Z,0.40
2019-04-04T19:57:22.258Z,0.45
2019-04-04T19:59:50.810Z,0.50
2019-04-04T20:02:19.340Z,0.50
2019-04-04T20:04:47.862Z,0.50
2019-04-04T20:07:16.412Z,0.50
2019-04-04T20:09:45.008Z,0.50
2019-04-04T20:12:13.554Z,0.50
2019-04-04T20:14:42.075Z,0.50
2019-04-04T20:17:10.598Z,0.40
2019-04-04T20:19:39.148Z,0.45
2019-04-04T20:22:07.675Z,0.53
2019-04-04T20:24:36.216Z,0.50
2019-04-04T20:27:04.896Z,0.60
2019-04-04T20:29:33.435Z,0.70
2019-04-04T20:32:01.970Z,0.50
2019-04-04T20:34:30.578Z,0.70
2019-04-04T20:36:59.046Z,0.90
2019-04-04T20:39:27.576Z,0.70
2019-04-04T20:41:56.183Z,0.53
2019-04-04T20:44:24.704Z,0.80
2019-04-04T20:46:53.242Z,0.60
2019-04-04T20:49:21.772Z,0.57
2019-04-04T20:51:50.292Z,0.60
2019-04-04T20:54:18.836Z,0.60
2019-04-04T20:56:47.360Z,0.80
2019-04-04T20:59:15.909Z,0.60
2019-04-04T21:01:44.435Z,0.78
2019-04-04T21:04:12.971Z,0.60
2019-04-04T21:06:41.503Z,0.70
2019-04-04T21:09:10.935Z,0.50
2019-04-04T21:11:39.470Z,0.60
2019-04-04T21:14:07.923Z,0.60
2019-04-04T21:16:36.531Z,0.60
2019-04-04T21:19:05.123Z,0.80
2019-04-04T21:21:33.673Z,0.57
2019-04-04T21:24:02.196Z,0.72
2019-04-04T21:26:30.719Z,0.70
2019-04-04T21:28:59.261Z,0.80
2019-04-04T21:31:29.148Z,0.70
2019-04-04T21:33:57.703Z,0.70
2019-04-04T21:36:26.228Z,0.88
2019-04-04T21:38:54.750Z,0.70
2019-04-04T21:41:23.298Z,0.70
2019-04-04T21:43:51.814Z,0.70
2019-04-04T21:46:20.381Z,0.90
2019-04-04T21:48:48.891Z,0.82
2019-04-04T21:51:17.487Z,0.70
2019-04-04T21:53:46.546Z,0.70
2019-04-04T21:56:15.023Z,0.72
2019-04-04T21:58:43.568Z,0.70
2019-04-04T22:01:12.341Z,0.90
2019-04-04T22:03:40.854Z,0.72
2019-04-04T22:06:09.470Z,0.95
2019-04-04T22:08:38.066Z,0.72
2019-04-04T22:11:06.606Z,0.90
2019-04-04T22:13:35.143Z,0.90
2019-04-04T22:16:03.739Z,0.85
2019-04-04T22:18:32.275Z,1.07
2019-04-04T22:21:00.793Z,1.00
2019-04-04T22:23:29.330Z,1.00
2019-04-04T22:25:57.857Z,1.10
2019-04-04T22:28:26.390Z,1.00
2019-04-04T22:30:54.844Z,1.07
2019-04-04T22:33:23.387Z,1.02
2019-04-04T22:35:51.959Z,1.05
2019-04-04T22:38:20.457Z,1.15
2019-04-04T22:40:48.976Z,1.27
2019-04-04T22:43:17.505Z,1.30
2019-04-04T22:45:46.050Z,1.02
2019-04-04T22:48:14.568Z,1.30
2019-04-04T22:50:43.182Z,1.45
2019-04-04T22:53:11.630Z,1.10
2019-04-04T22:55:40.175Z,1.40
2019-04-04T22:58:09.889Z,1.32
2019-04-04T23:00:38.469Z,1.27
2019-04-04T23:03:07.163Z,1.30
2019-04-04T23:05:35.771Z,1.20
2019-04-04T23:08:07.313Z,1.75
2019-04-04T23:10:34.530Z,1.50
2019-04-04T23:13:03.079Z,1.60
2019-04-04T23:15:31.598Z,1.55
2019-04-04T23:18:00.138Z,1.55
2019-04-04T23:20:28.727Z,1.67
2019-04-04T23:22:57.280Z,1.42
2019-04-04T23:25:26.229Z,1.40
2019-04-04T23:27:54.755Z,1.30
2019-04-04T23:30:23.275Z,1.40
2019-04-04T23:32:51.812Z,1.42
2019-04-04T23:35:20.256Z,1.70
2019-04-04T23:37:48.779Z,1.27
2019-04-04T23:40:17.311Z,1.52
2019-04-04T23:42:45.835Z,1.87
2019-04-04T23:45:14.366Z,1.50
2019-04-04T23:47:43.673Z,1.50
2019-04-04T23:50:12.691Z,1.75
2019-04-04T23:52:41.216Z,1.35
2019-04-04T23:55:10.080Z,1.45
2019-04-04T23:57:38.623Z,1.80
